createdAt,value
2018-09-06T00:44:34.303Z,18.90
2018-09-06T00:47:02.864Z,18.10
2018-09-06T00:49:31.162Z,18.10
2018-09-06T00:51:59.453Z,18.10
2018-09-06T00:54:27.791Z,18.10
2018-09-06T00:56:56.088Z,18.10
2018-09-06T00:59:24.947Z,18.10
2018-09-06T11:14:51.206Z,18.10
2018-09-06T12:51:09.361Z,20.10
2018-09-06T12:58:33.759Z,17.50
2018-09-06T13:01:02.073Z,17.30
2018-09-06T13:03:30.396Z,17.30
2018-09-06T13:05:58.710Z,17.40
2018-09-06T13:08:27.028Z,17.50
2018-09-06T13:10:55.329Z,17.50
2018-09-06T13:13:23.678Z,17.50
2018-09-06T13:15:51.951Z,17.60
2018-09-06T13:18:20.302Z,17.70
2018-09-06T13:20:48.579Z,17.80
2018-09-06T13:23:16.884Z,17.70
2018-09-06T13:25:45.193Z,17.70
2018-09-06T13:28:13.532Z,17.70
2018-09-06T13:30:41.972Z,17.70
2018-09-06T13:33:10.287Z,17.60
2018-09-06T13:35:38.659Z,17.60
2018-09-06T13:38:06.932Z,17.60
2018-09-06T13:40:35.222Z,17.60
2018-09-06T13:43:03.536Z,17.60
2018-09-06T13:45:31.828Z,17.70
2018-09-06T13:48:00.119Z,17.70
2018-09-06T13:50:28.426Z,17.70
2018-09-06T13:52:56.759Z,17.80
2018-09-06T13:55:25.064Z,17.90
2018-09-06T13:57:53.364Z,17.90
2018-09-06T14:00:21.668Z,18.00
2018-09-06T14:02:49.974Z,18.00
2018-09-06T14:05:18.271Z,18.20
2018-09-06T14:07:46.615Z,18.40
2018-09-06T14:10:14.945Z,18.60
2018-09-06T14:12:43.267Z,18.70
2018-09-06T14:15:11.571Z,18.80
2018-09-06T14:17:39.913Z,18.80
2018-09-06T14:20:08.228Z,18.80
2018-09-06T14:22:36.534Z,18.70
2018-09-06T14:25:04.843Z,18.70
2018-09-06T14:27:33.175Z,18.60
2018-09-06T14:30:01.577Z,18.50
2018-09-06T14:32:30.076Z,18.40
2018-09-06T14:34:58.831Z,18.40
2018-09-06T14:37:27.190Z,18.40
2018-09-06T14:39:55.538Z,18.40
2018-09-06T14:42:23.873Z,18.40
2018-09-06T14:44:52.187Z,18.20
2018-09-06T14:47:20.493Z,18.20
2018-09-06T14:49:48.803Z,18.30
2018-09-06T14:52:17.120Z,18.20
2018-09-06T14:54:45.588Z,18.20
2018-09-06T14:57:13.900Z,18.20
2018-09-06T14:59:42.223Z,18.20
2018-09-06T15:02:10.605Z,18.20
2018-09-06T15:04:38.922Z,18.20
2018-09-06T15:07:07.231Z,18.20
2018-09-06T15:09:35.560Z,18.20
2018-09-06T15:12:03.887Z,18.30
2018-09-06T15:14:32.191Z,18.30
2018-09-06T15:17:00.799Z,18.20
2018-09-06T15:19:29.119Z,18.30
2018-09-06T15:21:57.444Z,18.30
2018-09-06T15:24:25.767Z,18.40
2018-09-06T15:26:54.178Z,18.30
2018-09-06T15:29:22.499Z,18.40
2018-09-06T15:31:50.831Z,18.50
2018-09-06T15:34:19.190Z,18.50
2018-09-06T15:36:47.543Z,18.60
2018-09-06T15:39:15.871Z,18.70
2018-09-06T15:41:44.200Z,18.60
2018-09-06T15:44:12.511Z,18.50
2018-09-06T15:46:40.916Z,18.50
2018-09-06T15:49:09.260Z,18.60
2018-09-06T15:51:37.576Z,18.70
2018-09-06T15:54:06.120Z,18.70
2018-09-06T15:56:34.447Z,18.60
2018-09-06T15:59:02.791Z,18.60
2018-09-06T16:01:31.127Z,18.60
2018-09-06T16:03:59.465Z,18.60
2018-09-06T16:06:27.996Z,18.70
2018-09-06T16:08:56.319Z,18.70
2018-09-06T16:11:24.663Z,18.70
2018-09-06T17:57:34.008Z,18.60
2018-09-06T18:00:02.353Z,17.50
2018-09-06T18:02:30.773Z,17.40
2018-09-06T18:04:59.232Z,17.40
2018-09-06T18:07:27.606Z,17.30
2018-09-06T18:09:55.935Z,17.40
2018-09-06T18:12:24.301Z,17.30
2018-09-06T18:14:52.622Z,17.30
2018-09-06T18:17:21.021Z,17.20
2018-09-06T18:19:49.295Z,17.20
2018-09-06T18:22:17.583Z,17.20
2018-09-06T18:24:46.095Z,17.10
2018-09-06T18:27:14.401Z,17.10
2018-09-06T18:29:42.783Z,17.10
2018-09-06T18:32:12.039Z,17.00
2018-09-06T18:34:40.370Z,17.00
2018-09-06T18:37:08.665Z,17.00
2018-09-06T18:39:37.004Z,17.00
2018-09-06T18:42:05.282Z,17.00
2018-09-06T18:44:33.602Z,16.90
2018-09-06T18:47:01.923Z,16.90
2018-09-06T18:49:30.234Z,16.90
2018-09-06T18:51:58.580Z,16.90
2018-09-06T18:54:26.881Z,16.80
2018-09-06T18:56:55.172Z,16.80
2018-09-06T18:59:23.697Z,16.80
2018-09-06T19:01:51.988Z,16.80
2018-09-06T19:04:20.291Z,16.80
2018-09-06T19:06:48.615Z,16.80
2018-09-06T19:09:17.022Z,16.80
2018-09-06T19:11:45.303Z,16.80
2018-09-06T19:14:13.658Z,16.70
2018-09-06T19:16:41.976Z,16.70
2018-09-06T19:19:10.307Z,16.70
2018-09-06T19:21:38.636Z,16.60
2018-09-06T19:24:06.987Z,16.60
2018-09-06T19:26:35.427Z,16.60
2018-09-06T19:29:03.736Z,16.70
2018-09-06T19:31:32.089Z,16.70
2018-09-06T19:34:00.436Z,16.70
2018-09-06T19:36:28.770Z,16.70
2018-09-06T19:38:57.129Z,16.70
2018-09-06T19:41:25.444Z,16.70
2018-09-06T19:43:53.781Z,16.70
2018-09-06T19:46:22.203Z,16.60
2018-09-06T19:48:51.032Z,16.60
2018-09-06T19:51:19.319Z,16.70
2018-09-06T19:53:47.632Z,16.50
2018-09-06T19:56:15.940Z,16.50
2018-09-06T19:58:44.277Z,16.50
2018-09-06T20:01:12.643Z,16.40
2018-09-06T20:03:40.939Z,16.30
